Time;durP1;ratioP1;P1;durP2;ratioP2;P2;SDS_P1;SDS_P2;PMS_P1;PMS_P2;Temp;Humidity;BMP_temperature;BMP_pressure;BME280_temperature;BME280_humidity;BME280_pressure;Samples;Min_cycle;Max_cycle;Signal;HPM_P1;HPM_P2
2021/11/11 00:01:30;;;;;;;6.07;5.40;;;6.80;74.60;;;;;;4976172;28;20042;-80
2021/11/11 00:03:57;;;;;;;5.90;5.57;;;6.80;74.70;;;;;;4974578;28;20026;-80
2021/11/11 00:06:24;;;;;;;11.33;7.43;;;6.70;74.70;;;;;;4975544;28;20031;-81
2021/11/11 00:08:50;;;;;;;5.97;5.53;;;6.70;74.70;;;;;;4976964;28;20046;-80
2021/11/11 00:11:16;;;;;;;10.80;7.83;;;6.70;74.70;;;;;;4976293;28;20185;-81
2021/11/11 00:13:42;;;;;;;6.80;6.20;;;6.70;74.70;;;;;;4976632;28;20095;-80
2021/11/11 00:16:08;;;;;;;7.83;6.90;;;6.70;74.70;;;;;;4974955;28;20039;-80
2021/11/11 00:18:34;;;;;;;8.03;7.10;;;6.70;74.70;;;;;;4974100;28;20023;-80
2021/11/11 00:21:00;;;;;;;6.00;5.60;;;6.70;74.80;;;;;;4976471;28;20034;-81
2021/11/11 00:23:26;;;;;;;8.13;6.60;;;6.70;74.70;;;;;;4976406;28;20027;-81
2021/11/11 00:25:52;;;;;;;6.43;5.83;;;6.70;74.70;;;;;;4977446;28;20031;-81
2021/11/11 00:28:19;;;;;;;6.57;5.97;;;6.70;74.70;;;;;;4977263;28;20026;-80
2021/11/11 00:30:45;;;;;;;14.53;6.93;;;6.70;74.70;;;;;;4971215;28;20218;-80
2021/11/11 00:33:11;;;;;;;10.53;6.70;;;6.70;74.70;;;;;;4976652;28;20027;-80
2021/11/11 00:35:37;;;;;;;6.57;6.07;;;6.60;74.70;;;;;;4977066;28;20053;-80
2021/11/11 00:38:03;;;;;;;9.70;6.13;;;6.60;74.80;;;;;;4975952;28;20046;-80
2021/11/11 00:40:30;;;;;;;14.33;7.77;;;6.60;74.80;;;;;;4977244;28;20432;-80
2021/11/11 00:42:58;;;;;;;6.83;6.13;;;6.60;74.80;;;;;;4973674;28;20385;-81
2021/11/11 00:45:24;;;;;;;8.90;6.20;;;6.60;74.80;;;;;;4973877;28;20055;-80
2021/11/11 00:47:50;;;;;;;6.80;6.27;;;6.60;74.80;;;;;;4960540;28;20043;-80
2021/11/11 00:50:18;;;;;;;6.93;6.37;;;6.60;74.80;;;;;;4976850;28;20031;-80
2021/11/11 00:52:44;;;;;;;6.90;6.30;;;6.60;74.80;;;;;;4976098;28;20027;-80
2021/11/11 00:55:10;;;;;;;6.57;5.97;;;6.60;74.90;;;;;;4975652;28;20029;-80
2021/11/11 00:57:37;;;;;;;6.10;5.70;;;6.60;74.90;;;;;;4972283;28;20043;-80
2021/11/11 01:00:05;;;;;;;6.73;6.13;;;6.50;74.90;;;;;;4977247;28;20042;-80
2021/11/11 01:02:34;;;;;;;11.40;6.83;;;6.60;74.90;;;;;;4975867;28;20035;-80
2021/11/11 01:05:00;;;;;;;6.30;5.77;;;6.50;74.90;;;;;;4975793;28;20504;-80
2021/11/11 01:07:26;;;;;;;5.50;5.17;;;6.50;74.90;;;;;;4975891;28;20026;-80
2021/11/11 01:09:52;;;;;;;7.27;6.67;;;6.50;74.90;;;;;;4972826;28;20026;-80
2021/11/11 01:12:18;;;;;;;12.27;6.57;;;6.50;74.90;;;;;;4974745;28;20395;-80
2021/11/11 01:14:44;;;;;;;8.37;6.07;;;6.40;74.90;;;;;;4977427;28;20035;-80
2021/11/11 01:17:10;;;;;;;9.43;5.40;;;6.40;74.90;;;;;;4975320;28;20069;-80
2021/11/11 01:19:37;;;;;;;9.00;8.07;;;6.40;75.00;;;;;;4975571;28;20031;-80
2021/11/11 01:22:03;;;;;;;8.03;6.00;;;6.40;75.00;;;;;;4957807;28;20039;-80
2021/11/11 01:24:29;;;;;;;6.50;6.10;;;6.40;75.10;;;;;;4972937;28;20388;-80
2021/11/11 01:26:55;;;;;;;8.50;7.03;;;6.40;75.00;;;;;;4975782;28;20055;-80
2021/11/11 01:29:21;;;;;;;5.70;5.23;;;6.40;75.10;;;;;;4975675;28;20472;-80
2021/11/11 01:31:47;;;;;;;5.83;5.43;;;6.40;75.10;;;;;;4974605;28;20043;-80
2021/11/11 01:34:13;;;;;;;7.40;6.27;;;6.40;75.10;;;;;;4975234;28;20031;-80
2021/11/11 01:36:40;;;;;;;7.53;6.87;;;6.40;75.10;;;;;;4971457;28;20484;-80
2021/11/11 01:39:07;;;;;;;6.87;6.47;;;6.40;75.00;;;;;;4976053;28;20039;-80
2021/11/11 01:41:33;;;;;;;7.63;6.87;;;6.30;75.00;;;;;;4975325;28;20035;-80
2021/11/11 01:43:59;;;;;;;5.43;4.93;;;6.30;75.10;;;;;;4977508;28;20027;-80
2021/11/11 01:46:26;;;;;;;5.77;5.37;;;6.30;75.10;;;;;;4962302;28;20026;-80
2021/11/11 01:48:52;;;;;;;7.70;6.63;;;6.30;75.10;;;;;;4975485;28;20031;-80
2021/11/11 01:51:18;;;;;;;7.93;5.93;;;6.30;75.00;;;;;;4978094;28;20361;-80
2021/11/11 01:53:44;;;;;;;5.63;5.33;;;6.30;75.00;;;;;;4979353;28;20499;-80
2021/11/11 01:56:10;;;;;;;5.93;5.43;;;6.30;75.00;;;;;;4978859;28;20038;-80
2021/11/11 01:58:36;;;;;;;5.57;5.23;;;6.30;75.00;;;;;;4979965;28;20507;-80
2021/11/11 02:01:03;;;;;;;6.30;5.83;;;6.20;74.90;;;;;;4976579;28;20054;-80
2021/11/11 02:03:29;;;;;;;6.60;5.93;;;6.20;75.00;;;;;;4975854;28;20031;-80
2021/11/11 02:05:55;;;;;;;6.43;5.90;;;6.20;74.90;;;;;;4979419;28;20035;-80
2021/11/11 02:08:22;;;;;;;5.37;4.97;;;6.20;75.10;;;;;;4978358;28;20042;-80
2021/11/11 02:10:48;;;;;;;8.40;7.37;;;6.20;75.10;;;;;;4979798;28;20027;-80
2021/11/11 02:13:14;;;;;;;6.83;6.17;;;6.20;75.10;;;;;;4978437;28;20030;-80
2021/11/11 02:15:40;;;;;;;10.57;7.10;;;6.20;75.10;;;;;;4973762;28;20038;-80
2021/11/11 02:18:07;;;;;;;10.77;6.17;;;6.20;75.20;;;;;;4978797;28;20468;-80
2021/11/11 02:20:36;;;;;;;6.07;5.70;;;6.20;75.30;;;;;;4978361;28;20042;-80
2021/11/11 02:23:03;;;;;;;7.43;6.83;;;6.20;75.20;;;;;;4978101;28;20507;-80
2021/11/11 02:25:30;;;;;;;11.87;7.20;;;6.20;75.10;;;;;;4979459;28;20026;-80
2021/11/11 02:27:59;;;;;;;6.10;5.43;;;6.20;75.10;;;;;;4976943;28;20129;-80
2021/11/11 02:30:25;;;;;;;7.83;6.53;;;6.20;75.10;;;;;;4975727;28;20039;-80
2021/11/11 02:32:53;;;;;;;6.73;6.20;;;6.20;75.10;;;;;;4979378;28;20038;-80
2021/11/11 02:35:19;;;;;;;6.00;5.60;;;6.20;75.10;;;;;;4978100;28;20034;-80
2021/11/11 02:37:45;;;;;;;5.27;4.93;;;6.10;75.10;;;;;;4977938;28;20039;-80
2021/11/11 02:40:23;;;;;;;6.13;5.63;;;6.10;75.20;;;;;;4977455;28;20030;-80
2021/11/11 02:42:49;;;;;;;6.90;6.20;;;6.10;75.20;;;;;;4960121;28;20396;-80
2021/11/11 02:45:23;;;;;;;5.67;5.13;;;6.00;75.20;;;;;;4978053;28;20523;-80
2021/11/11 02:47:50;;;;;;;5.17;4.87;;;6.00;75.30;;;;;;4976929;28;20034;-80
2021/11/11 02:50:16;;;;;;;7.20;6.50;;;6.00;75.30;;;;;;4977330;28;20048;-80
2021/11/11 02:52:48;;;;;;;6.73;6.10;;;6.00;75.30;;;;;;4977372;28;20026;-80
2021/11/11 02:55:15;;;;;;;5.67;5.23;;;6.00;75.40;;;;;;4988913;28;20037;-80
2021/11/11 02:57:41;;;;;;;24.33;6.17;;;6.00;75.40;;;;;;4972458;28;20058;-80
2021/11/11 03:00:08;;;;;;;4.93;4.63;;;6.00;75.30;;;;;;4978534;28;20047;-80
2021/11/11 03:02:35;;;;;;;7.70;6.50;;;6.00;75.30;;;;;;4977115;28;20030;-80
2021/11/11 03:05:02;;;;;;;5.07;4.77;;;6.00;75.30;;;;;;4955832;28;20435;-80
2021/11/11 03:07:28;;;;;;;5.53;5.23;;;6.00;75.40;;;;;;4973039;28;20042;-80
2021/11/11 03:09:54;;;;;;;16.03;6.13;;;6.00;75.30;;;;;;4976781;28;20042;-80
2021/11/11 03:12:20;;;;;;;7.53;5.97;;;6.00;75.30;;;;;;4985920;28;20038;-80
2021/11/11 03:14:47;;;;;;;6.40;5.90;;;6.00;75.40;;;;;;4972020;28;20034;-80
2021/11/11 03:17:14;;;;;;;6.73;5.90;;;5.90;75.30;;;;;;4957559;28;20061;-80
2021/11/11 03:19:40;;;;;;;7.03;4.97;;;5.90;75.30;;;;;;4968722;28;20027;-80
2021/11/11 03:22:10;;;;;;;6.80;6.17;;;5.90;75.50;;;;;;4968808;28;20031;-80
2021/11/11 03:24:38;;;;;;;6.50;5.90;;;5.90;75.40;;;;;;4977710;28;20062;-80
2021/11/11 03:27:04;;;;;;;9.53;5.23;;;5.90;75.50;;;;;;4972496;28;20050;-80
2021/11/11 03:29:30;;;;;;;5.83;5.43;;;5.90;75.40;;;;;;4968338;28;20045;-80
2021/11/11 03:31:57;;;;;;;5.13;4.80;;;5.90;75.40;;;;;;4967902;28;20384;-80
2021/11/11 03:34:23;;;;;;;6.53;6.03;;;5.90;75.30;;;;;;4968382;28;20034;-80
2021/11/11 03:36:50;;;;;;;6.30;5.70;;;5.90;75.40;;;;;;4973494;28;20046;-80
2021/11/11 03:39:17;;;;;;;5.10;4.80;;;5.90;75.40;;;;;;4976172;28;20035;-80
2021/11/11 03:41:44;;;;;;;6.53;5.90;;;5.80;75.40;;;;;;4984266;28;20042;-80
2021/11/11 03:44:11;;;;;;;5.23;4.90;;;5.80;76.30;;;;;;4981289;28;20507;-80
2021/11/11 03:46:37;;;;;;;5.60;4.80;;;5.80;75.50;;;;;;4976504;28;20031;-80
2021/11/11 03:49:03;;;;;;;5.40;5.00;;;5.70;75.50;;;;;;4976301;28;20038;-80
2021/11/11 03:51:29;;;;;;;6.87;6.17;;;5.70;75.50;;;;;;4974246;28;20037;-80
2021/11/11 03:53:55;;;;;;;5.07;4.67;;;5.70;75.50;;;;;;4977674;28;20476;-80
2021/11/11 03:56:22;;;;;;;7.20;5.70;;;5.80;75.60;;;;;;4977926;28;20476;-80
2021/11/11 03:58:49;;;;;;;6.37;5.90;;;5.80;75.50;;;;;;4977628;28;20041;-80
2021/11/11 04:01:15;;;;;;;5.87;5.43;;;5.80;75.50;;;;;;4977051;28;20034;-80
2021/11/11 04:03:41;;;;;;;9.80;6.37;;;5.80;75.50;;;;;;4956000;28;20464;-80
2021/11/11 04:06:07;;;;;;;5.63;5.10;;;5.80;75.50;;;;;;4971274;28;20488;-80
2021/11/11 04:08:34;;;;;;;6.43;5.83;;;5.80;75.40;;;;;;4977100;28;20042;-80
2021/11/11 04:11:01;;;;;;;5.33;4.83;;;5.80;75.40;;;;;;4977648;28;20023;-80
2021/11/11 04:13:28;;;;;;;7.00;6.30;;;5.80;75.40;;;;;;4959819;28;20038;-80
2021/11/11 04:15:55;;;;;;;6.43;5.93;;;5.80;75.40;;;;;;4973129;28;20043;-80
2021/11/11 04:18:21;;;;;;;5.93;5.47;;;5.80;75.40;;;;;;4974759;28;20035;-80
2021/11/11 04:20:47;;;;;;;5.67;5.17;;;5.70;75.40;;;;;;4976837;28;20030;-80
2021/11/11 04:23:14;;;;;;;4.73;4.40;;;5.70;75.40;;;;;;4977654;28;20038;-80
2021/11/11 04:26:08;;;;;;;6.23;5.73;;;5.70;75.50;;;;;;4975952;28;20042;-80
2021/11/11 04:28:30;;;;;;;6.33;5.30;;;5.70;75.50;;;;;;4976823;28;20042;-80
2021/11/11 04:31:02;;;;;;;5.33;4.87;;;5.70;75.50;;;;;;4973444;28;20046;-80
2021/11/11 04:33:29;;;;;;;8.30;4.57;;;5.70;75.50;;;;;;4973797;28;20035;-80
2021/11/11 04:36:02;;;;;;;5.00;4.70;;;5.60;75.50;;;;;;4976795;28;20372;-80
2021/11/11 04:43:49;;;;;;;4.30;4.10;;;5.60;75.50;;;;;;4979000;28;20038;-80
2021/11/11 05:00:01;;;;;;;;;;;5.40;75.70;;;;;;4976572;28;20534;-80
2021/11/11 05:05:06;;;;;;;6.90;5.40;;;5.40;75.60;;;;;;4977558;28;20042;-80
2021/11/11 05:07:32;;;;;;;5.57;5.17;;;5.40;75.60;;;;;;4976979;28;20037;-80
2021/11/11 05:09:58;;;;;;;5.00;4.60;;;5.40;75.60;;;;;;4973623;28;20030;-80
2021/11/11 05:12:24;;;;;;;4.83;4.57;;;5.40;75.60;;;;;;4973449;28;20035;-80
2021/11/11 05:14:50;;;;;;;4.83;4.53;;;5.40;75.60;;;;;;4977566;28;20030;-80
2021/11/11 05:17:22;;;;;;;6.20;5.73;;;5.40;75.70;;;;;;4976660;28;20046;-80
2021/11/11 05:19:49;;;;;;;5.67;5.13;;;5.40;75.60;;;;;;4980368;28;20050;-80
2021/11/11 05:22:15;;;;;;;5.50;5.00;;;5.40;75.60;;;;;;4979389;28;20030;-80
2021/11/11 05:24:42;;;;;;;5.47;4.93;;;5.40;75.50;;;;;;4976490;28;20034;-80
2021/11/11 05:27:08;;;;;;;7.37;5.47;;;5.40;75.50;;;;;;4979576;28;20030;-80
2021/11/11 05:29:34;;;;;;;6.33;5.93;;;5.40;75.50;;;;;;4980525;28;20460;-80
2021/11/11 05:32:00;;;;;;;4.40;4.17;;;5.40;75.50;;;;;;4978946;28;20038;-80
2021/11/11 05:34:26;;;;;;;5.23;4.73;;;5.40;75.60;;;;;;4978950;28;20034;-80
2021/11/11 05:36:52;;;;;;;4.20;4.00;;;5.30;75.60;;;;;;4977004;28;20031;-80
2021/11/11 05:39:18;;;;;;;4.77;4.47;;;5.30;75.60;;;;;;4979450;28;20034;-80
2021/11/11 05:41:44;;;;;;;4.23;4.00;;;5.20;75.70;;;;;;4979132;28;20031;-80
2021/11/11 05:44:10;;;;;;;4.73;4.43;;;5.20;75.70;;;;;;4979030;28;20031;-80
2021/11/11 05:46:36;;;;;;;6.27;5.67;;;5.20;75.80;;;;;;4978619;28;20396;-80
2021/11/11 05:49:02;;;;;;;6.53;5.67;;;5.20;75.90;;;;;;4977167;28;20042;-80
2021/11/11 05:51:29;;;;;;;5.10;4.70;;;5.20;75.90;;;;;;4976607;28;20027;-80
2021/11/11 05:53:55;;;;;;;7.23;6.40;;;5.20;75.80;;;;;;4980657;28;20038;-80
2021/11/11 05:56:21;;;;;;;4.37;4.17;;;5.20;75.80;;;;;;4978437;28;20519;-80
2021/11/11 05:58:47;;;;;;;5.63;5.23;;;5.20;75.80;;;;;;4978727;28;20038;-80
2021/11/11 06:01:14;;;;;;;4.30;4.07;;;5.20;75.80;;;;;;4977590;28;20038;-80
2021/11/11 06:03:40;;;;;;;4.53;4.23;;;5.30;75.90;;;;;;4974795;28;22997;-80
2021/11/11 06:06:06;;;;;;;4.40;4.10;;;5.30;75.80;;;;;;4980548;28;20019;-80
2021/11/11 06:08:32;;;;;;;6.50;5.47;;;5.30;75.70;;;;;;4979778;28;20050;-80
2021/11/11 06:10:59;;;;;;;5.70;4.67;;;5.30;75.80;;;;;;4978260;28;20027;-80
2021/11/11 06:13:25;;;;;;;5.43;4.97;;;5.40;75.80;;;;;;4978624;28;20030;-80
2021/11/11 06:15:52;;;;;;;4.50;4.20;;;5.40;75.70;;;;;;4958226;28;20065;-80
2021/11/11 06:18:20;;;;;;;5.37;5.00;;;5.30;75.60;;;;;;4977514;28;20043;-80
2021/11/11 06:20:49;;;;;;;5.13;4.83;;;5.30;75.70;;;;;;4978894;28;20027;-80
2021/11/11 06:23:15;;;;;;;4.97;4.67;;;5.30;75.70;;;;;;4978098;28;20039;-80
2021/11/11 06:25:41;;;;;;;5.17;4.77;;;5.30;75.70;;;;;;4978367;28;20031;-80
2021/11/11 06:28:08;;;;;;;7.20;5.10;;;5.30;75.70;;;;;;4977269;28;20046;-80
2021/11/11 06:30:34;;;;;;;5.23;4.73;;;5.20;75.70;;;;;;4974349;28;20058;-80
2021/11/11 06:33:00;;;;;;;4.93;4.60;;;5.20;75.80;;;;;;4978732;28;20027;-80
2021/11/11 06:35:31;;;;;;;4.73;4.43;;;5.10;75.80;;;;;;4958760;28;20059;-80
2021/11/11 06:37:58;;;;;;;7.15;6.55;;;5.10;75.90;;;;;;4960838;28;20058;-80
2021/11/11 06:40:24;;;;;;;5.03;4.60;;;5.10;75.90;;;;;;4978058;28;20034;-80
2021/11/11 06:42:50;;;;;;;4.50;4.10;;;5.10;75.90;;;;;;4974830;28;20039;-80
2021/11/11 06:45:17;;;;;;;5.37;4.90;;;5.10;75.90;;;;;;4976929;28;20487;-80
2021/11/11 06:47:44;;;;;;;5.93;5.17;;;5.10;75.80;;;;;;4978460;28;20027;-80
2021/11/11 06:50:11;;;;;;;3.93;3.73;;;5.10;75.80;;;;;;4977853;28;20039;-80
2021/11/11 06:52:38;;;;;;;5.33;4.90;;;5.10;75.80;;;;;;4977702;28;20468;-80
2021/11/11 06:55:05;;;;;;;5.60;5.20;;;5.10;75.80;;;;;;4976414;28;20030;-80
2021/11/11 06:57:31;;;;;;;5.07;4.70;;;5.10;75.90;;;;;;4974576;28;20035;-80
2021/11/11 06:59:57;;;;;;;4.73;4.43;;;5.10;75.90;;;;;;4978180;28;20055;-80
2021/11/11 07:02:26;;;;;;;4.80;4.50;;;5.10;75.90;;;;;;4977100;28;20500;-80
2021/11/11 07:04:55;;;;;;;5.03;4.73;;;5.10;76.00;;;;;;4977664;28;20030;-80
2021/11/11 07:07:21;;;;;;;5.03;4.63;;;5.10;75.90;;;;;;4978514;28;20034;-80
2021/11/11 07:09:47;;;;;;;7.37;5.17;;;5.10;75.90;;;;;;4973838;28;20038;-80
2021/11/11 07:12:13;;;;;;;5.50;5.07;;;5.10;75.90;;;;;;4977251;28;20038;-80
2021/11/11 07:14:42;;;;;;;7.50;4.97;;;5.10;75.90;;;;;;4958250;28;20046;-80
2021/11/11 07:17:08;;;;;;;7.93;5.63;;;5.00;75.90;;;;;;4973080;28;20543;-80
2021/11/11 07:19:34;;;;;;;4.90;4.60;;;5.00;75.90;;;;;;4977161;28;20042;-80
2021/11/11 07:22:01;;;;;;;4.63;4.33;;;5.00;75.90;;;;;;4975213;28;20112;-80
2021/11/11 07:24:27;;;;;;;4.70;4.40;;;5.10;76.00;;;;;;4974879;28;20026;-80
2021/11/11 07:26:53;;;;;;;4.60;4.20;;;5.10;76.00;;;;;;4958313;28;20042;-80
2021/11/11 07:29:21;;;;;;;5.23;4.80;;;5.10;75.90;;;;;;4976050;28;20030;-80
2021/11/11 07:31:52;;;;;;;6.63;4.83;;;5.10;75.90;;;;;;4976730;28;20400;-80
2021/11/11 07:34:19;;;;;;;5.35;4.97;;;5.10;75.90;;;;;;4978283;28;20494;-80
2021/11/11 07:36:45;;;;;;;3.97;3.77;;;5.10;75.90;;;;;;4972813;28;20034;-80
2021/11/11 07:39:13;;;;;;;4.23;3.90;;;5.10;75.90;;;;;;4977277;28;20531;-80
2021/11/11 07:41:39;;;;;;;5.30;4.83;;;5.10;75.80;;;;;;4976655;28;20027;-80
2021/11/11 07:44:06;;;;;;;5.80;4.30;;;5.10;75.90;;;;;;4978156;28;20038;-80
2021/11/11 07:46:33;;;;;;;5.63;5.23;;;5.10;75.90;;;;;;4976352;28;20042;-80
2021/11/11 07:49:00;;;;;;;5.53;5.07;;;5.10;75.90;;;;;;4975946;28;20058;-80
2021/11/11 07:51:26;;;;;;;4.00;3.77;;;5.20;75.90;;;;;;4956086;28;20035;-80
2021/11/11 07:53:52;;;;;;;4.50;4.13;;;5.20;75.90;;;;;;4957906;28;20039;-80
2021/11/11 07:56:19;;;;;;;6.83;5.40;;;5.20;75.90;;;;;;4959855;28;20507;-80
2021/11/11 07:58:45;;;;;;;14.40;5.27;;;5.20;75.90;;;;;;4976503;28;20045;-80
2021/11/11 08:01:11;;;;;;;5.20;4.83;;;5.20;75.90;;;;;;4976739;28;20114;-80
2021/11/11 08:03:37;;;;;;;3.60;3.40;;;5.20;75.80;;;;;;4974040;28;20034;-80
2021/11/11 08:06:03;;;;;;;5.37;5.00;;;5.20;75.80;;;;;;4976981;28;20034;-80
2021/11/11 08:08:29;;;;;;;5.53;4.53;;;5.20;75.80;;;;;;4977737;28;20043;-80
2021/11/11 08:10:57;;;;;;;4.43;4.17;;;5.20;75.80;;;;;;4976455;28;20027;-80
2021/11/11 08:13:23;;;;;;;5.47;5.07;;;5.20;75.80;;;;;;4976359;28;20029;-80
2021/11/11 08:15:49;;;;;;;5.13;4.73;;;5.20;75.90;;;;;;4972717;28;20443;-80
2021/11/11 08:18:15;;;;;;;5.73;5.10;;;5.20;75.90;;;;;;4976701;28;20050;-81
2021/11/11 08:20:42;;;;;;;7.17;6.50;;;5.20;76.00;;;;;;4977631;28;20391;-81
2021/11/11 08:23:08;;;;;;;5.77;5.30;;;5.20;76.00;;;;;;4976336;28;20056;-80
2021/11/11 08:25:34;;;;;;;7.63;4.90;;;5.30;76.00;;;;;;4976230;28;20075;-80
2021/11/11 08:28:00;;;;;;;5.27;4.87;;;5.30;75.90;;;;;;4974355;28;20537;-81
2021/11/11 08:30:26;;;;;;;4.27;4.00;;;5.40;76.00;;;;;;4974759;28;20031;-81
2021/11/11 08:32:53;;;;;;;6.00;5.60;;;5.40;76.00;;;;;;4976691;28;20031;-81
2021/11/11 08:35:20;;;;;;;5.97;5.50;;;5.50;76.00;;;;;;4976044;28;20042;-81
2021/11/11 08:37:46;;;;;;;4.87;4.30;;;5.50;75.90;;;;;;4956581;28;20043;-81
2021/11/11 08:40:13;;;;;;;5.40;5.00;;;5.60;75.90;;;;;;4964386;28;20038;-81
2021/11/11 08:42:39;;;;;;;5.03;4.70;;;5.60;75.90;;;;;;4973235;28;20038;-82
2021/11/11 08:45:06;;;;;;;5.83;5.43;;;5.70;75.90;;;;;;4977545;28;20034;-81
2021/11/11 08:47:32;;;;;;;5.40;5.00;;;5.80;75.90;;;;;;4975976;28;20034;-82
2021/11/11 08:49:58;;;;;;;5.47;5.03;;;5.90;75.80;;;;;;4976935;28;20038;-82
2021/11/11 08:52:24;;;;;;;4.10;3.90;;;6.00;75.70;;;;;;4977179;28;20471;-82
2021/11/11 08:54:54;;;;;;;8.20;5.47;;;6.10;75.80;;;;;;4977931;28;20031;-81
2021/11/11 08:57:20;;;;;;;5.83;5.33;;;6.10;75.70;;;;;;4979629;28;20042;-82
2021/11/11 08:59:52;;;;;;;4.97;4.73;;;6.30;75.70;;;;;;4980279;28;20058;-82
2021/11/11 09:02:18;;;;;;;4.90;4.60;;;6.40;75.50;;;;;;4980614;28;20039;-82
2021/11/11 09:04:44;;;;;;;4.67;4.37;;;6.60;75.20;;;;;;4979510;28;20057;-82
2021/11/11 09:07:10;;;;;;;4.90;4.60;;;6.60;75.00;;;;;;4979088;28;20068;-82
2021/11/11 09:09:36;;;;;;;6.20;5.00;;;6.70;75.10;;;;;;4976104;28;20039;-82
2021/11/11 09:12:03;;;;;;;4.80;4.40;;;6.70;75.30;;;;;;4980460;28;20046;-81
2021/11/11 09:14:29;;;;;;;4.10;3.90;;;6.70;75.30;;;;;;4979549;28;20038;-81
2021/11/11 09:16:56;;;;;;;4.13;3.93;;;6.80;75.40;;;;;;4959809;28;20042;-80
2021/11/11 09:19:22;;;;;;;5.93;5.53;;;6.90;75.40;;;;;;4952390;28;20527;-81
2021/11/11 09:21:48;;;;;;;6.00;5.33;;;6.90;75.40;;;;;;4975656;28;20495;-81
2021/11/11 09:24:14;;;;;;;5.03;4.63;;;7.00;75.50;;;;;;4979330;28;20461;-80
2021/11/11 09:26:40;;;;;;;4.63;4.43;;;7.10;75.50;;;;;;4979696;28;20042;-81
2021/11/11 09:29:07;;;;;;;4.20;4.00;;;7.20;75.50;;;;;;4979384;28;20035;-81
2021/11/11 09:31:34;;;;;;;4.50;4.30;;;7.20;75.40;;;;;;4978864;28;20041;-81
2021/11/11 09:34:00;;;;;;;5.17;4.83;;;7.30;75.50;;;;;;4960555;28;20043;-81
2021/11/11 09:36:26;;;;;;;10.07;5.03;;;7.30;75.40;;;;;;4959154;28;20050;-81
2021/11/11 09:38:52;;;;;;;5.13;4.63;;;7.40;76.10;;;;;;4980825;28;20046;-80
2021/11/11 09:41:19;;;;;;;6.50;5.30;;;7.50;75.40;;;;;;4980561;28;20399;-81
2021/11/11 09:43:45;;;;;;;4.72;4.32;;;7.60;75.50;;;;;;4979284;28;20031;-81
2021/11/11 09:46:13;;;;;;;5.10;4.60;;;7.70;75.20;;;;;;4978533;28;20405;-81
2021/11/11 09:48:40;;;;;;;4.70;4.40;;;7.80;75.10;;;;;;4975181;28;20490;-80
2021/11/11 09:51:08;;;;;;;5.97;5.45;;;7.90;75.00;;;;;;4980971;28;20035;-80
2021/11/11 09:53:42;;;;;;;4.63;4.32;;;8.00;75.00;;;;;;4980172;28;20372;-81
2021/11/11 09:58:54;;;;;;;4.40;4.20;;;8.10;74.90;;;;;;4981842;28;20039;-80
2021/11/11 10:01:21;;;;;;;5.57;5.18;;;8.20;74.90;;;;;;4979309;28;20380;-81
2021/11/11 10:03:48;;;;;;;5.53;4.97;;;8.30;74.90;;;;;;4974457;28;20045;-81
2021/11/11 10:06:17;;;;;;;4.82;4.53;;;8.30;74.80;;;;;;4979433;28;20483;-81
2021/11/11 10:08:47;;;;;;;5.25;4.95;;;8.40;74.90;;;;;;4992905;28;20482;-81
2021/11/11 10:11:26;;;;;;;20.02;5.30;;;8.50;74.80;;;;;;4978889;28;20027;-81
2021/11/11 10:13:54;;;;;;;5.85;5.50;;;8.60;74.90;;;;;;4980387;28;20031;-81
2021/11/11 10:16:20;;;;;;;4.57;4.38;;;8.70;74.80;;;;;;4978114;28;20041;-81
2021/11/11 10:18:46;;;;;;;5.47;5.07;;;8.70;74.70;;;;;;4975091;28;20053;-80
2021/11/11 10:21:39;;;;;;;6.50;5.95;;;8.80;74.80;;;;;;4979809;28;20488;-81
2021/11/11 10:24:16;;;;;;;8.85;6.10;;;8.80;74.70;;;;;;4979616;28;20038;-81
2021/11/11 10:26:52;;;;;;;5.18;4.88;;;8.80;75.50;;;;;;4978896;28;20031;-81
2021/11/11 10:29:23;;;;;;;4.85;4.63;;;8.80;74.70;;;;;;4978501;28;20030;-81
2021/11/11 10:31:51;;;;;;;5.57;5.07;;;8.80;74.80;;;;;;4977376;28;20035;-81
2021/11/11 10:34:17;;;;;;;6.93;6.40;;;8.80;74.80;;;;;;4978097;28;20046;-80
2021/11/11 10:36:53;;;;;;;5.07;4.80;;;8.90;74.90;;;;;;4974275;28;20043;-81
2021/11/11 10:39:24;;;;;;;5.22;4.93;;;9.00;74.80;;;;;;5003419;28;20038;-80
2021/11/11 10:41:51;;;;;;;7.07;6.47;;;9.00;74.60;;;;;;4962562;28;20038;-81
2021/11/11 10:44:20;;;;;;;4.95;4.65;;;9.10;74.60;;;;;;4977777;28;20031;-81
2021/11/11 10:46:53;;;;;;;5.63;5.32;;;9.20;74.60;;;;;;4979244;28;20035;-81
2021/11/11 10:49:46;;;;;;;4.32;4.13;;;9.20;74.60;;;;;;4977982;28;20038;-81
2021/11/11 10:52:42;;;;;;;6.35;5.55;;;9.30;74.60;;;;;;4958666;28;20031;-81
2021/11/11 10:55:10;;;;;;;5.22;4.88;;;9.30;74.50;;;;;;4919237;29;20036;-80
2021/11/11 10:57:41;;;;;;;6.07;5.65;;;9.40;74.40;;;;;;4933464;29;20058;-81
2021/11/11 11:00:16;;;;;;;5.80;5.40;;;9.50;74.30;;;;;;4918064;29;20047;-81
2021/11/11 11:02:55;;;;;;;5.35;5.05;;;9.70;74.20;;;;;;4930102;29;20043;-81
2021/11/11 11:05:23;;;;;;;5.95;5.57;;;9.70;73.80;;;;;;4925348;29;20115;-81
2021/11/11 11:07:56;;;;;;;6.65;6.00;;;9.80;73.80;;;;;;4923067;29;20045;-81
2021/11/11 11:10:23;;;;;;;5.70;5.40;;;9.80;73.70;;;;;;4933811;29;20028;-81
2021/11/11 11:12:49;;;;;;;6.10;5.80;;;9.80;73.80;;;;;;4933228;29;20039;-81
2021/11/11 11:15:53;;;;;;;5.63;5.32;;;9.80;73.90;;;;;;4929369;28;20036;-81
2021/11/11 11:18:22;;;;;;;5.50;5.20;;;9.80;73.90;;;;;;4915005;29;20036;-80
2021/11/11 11:20:48;;;;;;;6.47;6.10;;;9.80;73.90;;;;;;4920644;29;20525;-81
2021/11/11 11:23:18;;;;;;;13.50;5.85;;;9.80;73.90;;;;;;4917991;29;20489;-80
2021/11/11 11:26:14;;;;;;;5.30;5.00;;;9.90;74.00;;;;;;4917557;29;20044;-81
2021/11/11 11:29:04;;;;;;;6.47;6.05;;;9.90;74.00;;;;;;4927624;29;20032;-81
2021/11/11 11:31:44;;;;;;;6.15;5.78;;;10.00;73.90;;;;;;4959062;28;20037;-81
2021/11/11 11:34:18;;;;;;;7.43;6.82;;;10.10;73.80;;;;;;4977515;28;20041;-81
2021/11/11 11:37:07;;;;;;;7.00;6.35;;;10.20;73.80;;;;;;5088361;27;20938;-80
2021/11/11 11:39:47;;;;;;;9.75;6.32;;;10.40;73.70;;;;;;5070059;28;20048;-80
2021/11/11 11:42:21;;;;;;;6.22;5.72;;;10.60;73.50;;;;;;5084612;28;20053;-80
2021/11/11 11:44:48;;;;;;;4.95;4.75;;;10.70;73.30;;;;;;5070357;28;20048;-80
2021/11/11 11:47:32;;;;;;;5.45;4.95;;;10.80;73.10;;;;;;5081178;28;20055;-80
2021/11/11 11:50:21;;;;;;;5.53;5.22;;;10.90;73.00;;;;;;5086059;28;20515;-80
2021/11/11 11:52:52;;;;;;;6.40;5.75;;;11.00;72.90;;;;;;5086266;28;20031;-80
2021/11/11 11:55:29;;;;;;;5.85;5.47;;;11.00;72.70;;;;;;5087441;28;20033;-80
2021/11/11 12:11:20;;;;;;;5.85;5.47;;;11.60;72.30;;;;;;5087500;28;20025;-80
2021/11/11 12:13:57;;;;;;;5.80;5.10;;;11.60;72.20;;;;;;5085717;28;20032;-80
2021/11/11 12:39:32;;;;;;;5.47;5.05;;;12.10;71.80;;;;;;5007389;28;20420;-80
2021/11/11 12:42:05;;;;;;;4.65;4.43;;;12.10;71.80;;;;;;5006523;28;20145;-80
2021/11/11 12:44:31;;;;;;;23.58;5.15;;;12.10;72.00;;;;;;4973391;28;20536;-80
2021/11/11 12:46:57;;;;;;;4.82;4.63;;;12.20;71.70;;;;;;4999471;28;20039;-80
2021/11/11 12:49:31;;;;;;;4.70;4.40;;;12.20;71.60;;;;;;4992942;28;20064;-80
2021/11/11 12:52:12;;;;;;;19.35;5.55;;;12.30;71.60;;;;;;4977910;28;20048;-80
2021/11/11 12:54:40;;;;;;;5.30;5.00;;;12.30;71.60;;;;;;4992988;28;20499;-80
2021/11/11 12:57:06;;;;;;;5.95;4.75;;;12.40;71.60;;;;;;4993016;28;20050;-80
2021/11/11 12:59:32;;;;;;;4.93;4.63;;;12.40;71.50;;;;;;4992699;28;20102;-79
2021/11/11 13:02:01;;;;;;;4.60;4.40;;;12.40;71.40;;;;;;4992398;28;20034;-80
2021/11/11 13:04:27;;;;;;;4.60;4.40;;;12.50;71.40;;;;;;4992457;28;20531;-80
2021/11/11 13:06:53;;;;;;;4.95;4.65;;;12.50;71.40;;;;;;4992601;28;20042;-80
2021/11/11 13:09:24;;;;;;;4.70;4.50;;;12.50;71.40;;;;;;4992981;28;20034;-80
2021/11/11 13:12:06;;;;;;;5.33;4.93;;;12.60;71.40;;;;;;5073021;28;20024;-80
2021/11/11 13:14:53;;;;;;;5.93;5.60;;;12.60;71.30;;;;;;5053872;28;20283;-80
2021/11/11 13:17:21;;;;;;;5.13;4.82;;;12.60;71.20;;;;;;5046973;28;20414;-80
2021/11/11 13:19:50;;;;;;;4.40;4.20;;;12.70;71.20;;;;;;5070009;28;20035;-80
2021/11/11 13:25:45;;;;;;;5.28;4.93;;;12.70;71.20;;;;;;5075978;28;20036;-80
2021/11/11 15:19:58;;;;;;;4.90;4.70;;;13.20;69.30;;;;;;5072272;28;20020;-80
2021/11/11 16:27:36;;;;;;;5.47;5.18;;;12.50;70.50;;;;;;5057380;28;20025;-80
2021/11/11 16:30:11;;;;;;;6.18;5.88;;;12.40;70.50;;;;;;5053846;28;20037;-79
2021/11/11 16:32:37;;;;;;;5.68;5.22;;;12.50;70.70;;;;;;5072889;28;20032;-81
2021/11/11 16:35:04;;;;;;;5.88;5.57;;;12.40;70.60;;;;;;5070338;28;20049;-81
2021/11/11 16:37:30;;;;;;;12.45;5.80;;;12.40;70.70;;;;;;5071881;28;20041;-81
2021/11/11 16:39:56;;;;;;;6.25;5.63;;;12.30;70.80;;;;;;5071500;28;20036;-81
2021/11/11 16:42:22;;;;;;;7.18;6.60;;;12.30;71.60;;;;;;5074225;28;20028;-80
2021/11/11 16:44:48;;;;;;;5.45;5.15;;;12.20;70.80;;;;;;5074301;28;20029;-80
2021/11/11 16:47:14;;;;;;;5.80;5.50;;;12.10;70.90;;;;;;5070982;28;20043;-81
2021/11/11 16:49:40;;;;;;;6.20;5.90;;;12.10;71.10;;;;;;5073089;28;20032;-80
2021/11/11 16:52:06;;;;;;;6.88;6.28;;;12.00;71.20;;;;;;5073028;28;20025;-80
2021/11/11 16:54:32;;;;;;;6.07;5.68;;;11.90;71.30;;;;;;5073008;28;20386;-80
2021/11/11 16:56:59;;;;;;;4.72;4.53;;;11.90;71.40;;;;;;5073237;28;20052;-80
2021/11/11 16:59:25;;;;;;;4.93;4.53;;;11.80;71.50;;;;;;5071209;28;20056;-80
2021/11/11 17:01:51;;;;;;;4.65;4.45;;;11.70;71.60;;;;;;5052022;28;20048;-80